Hovedside
METAR-TAF:

METAR-TAF

Lufthavner :

Shanghai Pudong internasjonale lufthavn

Shanghai-Pudong, Kina

breddegrad: 31-07N, lengdegrad: 121-46E, høyde over havet: 4 m

Gjeldene værobservasjon

Denne rapporten ble laget for 35 minutter siden, klokken 19:00 UTC
Flau vind
Temperatur 13°C
Luftfuktighet 88%
Trykk 1017 hPa
Sikt 10 km eller mer
ingen skyer under 1500 m og ingen bygeskyer

METAR: ZSPD 151900Z 00000MPS CAVOK 13/11 Q1017 NOSIG

Tid: 03:35 (19:35 UTC)

Varsel

Denne rapporten ble laget for 4 timer og 22 minutter siden, klokken 15:13 UTC
Varsel gyldig fra 15. klokken 18 UTC til 16. klokken 18 UTC
Vind 8 kt fra Sør-sørøst
Sikt: 5000 m
Spredte skyer i en høyde av 2000 ft
dis

TAF: ZSPD 151513Z 1518/1618 16004MPS 5000 BR SCT020 TX22/1606Z TN12/1521Z

Værobservasjoner og værvarsel for over 4000 flyplasser (METAR- og TAF-rapporter).

Tilgjengelige stasjoner er representert av de røde og gule prikkene på kartet.

Hold musepekeren over prikken for å se navnet på stasjonen.

Klikk så for å se værobservasjoner og -varsler.

For å forandre kartet kan du klikke på den grønne knappen med svart kryss for å zoome inn, på den grønne knappen med strek for å zoome ut, eller på de grønne pilene for å se tilstøtende kart.


METAR-TAF: